createdAt,value
2017-03-27T00:00:27.108Z,21.91
2017-03-27T00:01:36.176Z,21.88
2017-03-27T00:02:45.558Z,21.89
2017-03-27T00:03:54.927Z,21.89
2017-03-27T00:05:04.002Z,21.89
2017-03-27T00:06:12.761Z,21.83
2017-03-27T00:07:21.784Z,21.83
2017-03-27T00:08:31.729Z,21.91
2017-03-27T00:09:41.364Z,21.91
2017-03-27T00:10:51.004Z,21.89
2017-03-27T00:11:59.765Z,21.91
2017-03-27T00:13:08.827Z,21.88
2017-03-27T00:14:18.817Z,21.79
2017-03-27T00:15:28.501Z,21.89
2017-03-27T00:16:37.831Z,21.83
2017-03-27T00:17:48.094Z,21.91
2017-03-27T00:18:57.776Z,21.83
2017-03-27T00:20:07.401Z,21.85
2017-03-27T00:21:16.745Z,21.91
2017-03-27T00:22:26.153Z,21.93
2017-03-27T00:23:35.840Z,21.91
2017-03-27T00:24:45.509Z,21.91
2017-03-27T00:25:54.572Z,21.91
2017-03-27T00:27:03.636Z,21.89
2017-03-27T00:28:12.720Z,21.85
2017-03-27T00:29:22.091Z,21.85
2017-03-27T00:30:31.458Z,21.79
2017-03-27T00:31:40.480Z,21.91
2017-03-27T00:32:49.525Z,21.88
2017-03-27T00:33:58.560Z,21.91
2017-03-27T00:35:07.294Z,21.8
2017-03-27T00:36:16.963Z,21.91
2017-03-27T00:37:25.718Z,21.8
2017-03-27T00:38:35.402Z,21.82
2017-03-27T00:39:44.468Z,21.8
2017-03-27T00:40:54.144Z,21.8
2017-03-27T00:42:03.207Z,21.77
2017-03-27T00:43:12.280Z,21.8
2017-03-27T00:44:22.259Z,21.79
2017-03-27T00:45:31.937Z,21.77
2017-03-27T00:46:40.698Z,21.77
2017-03-27T00:47:50.079Z,21.72
2017-03-27T00:48:59.446Z,21.76
2017-03-27T00:50:08.217Z,21.7
2017-03-27T00:51:17.277Z,21.82
2017-03-27T00:52:26.307Z,21.72
2017-03-27T00:53:35.343Z,21.75
2017-03-27T00:54:45.324Z,21.77
2017-03-27T00:55:54.650Z,21.77
2017-03-27T00:57:03.715Z,21.77
2017-03-27T00:58:12.787Z,21.72
2017-03-27T00:59:22.157Z,21.73
2017-03-27T01:00:31.838Z,21.77
2017-03-27T01:01:40.900Z,21.67
2017-03-27T01:02:49.970Z,21.73
2017-03-27T01:03:59.650Z,21.73
2017-03-27T01:05:08.714Z,21.75
2017-03-27T01:06:18.386Z,21.73
2017-03-27T01:07:27.442Z,21.72
2017-03-27T01:08:36.504Z,21.73
2017-03-27T01:09:45.831Z,21.72
2017-03-27T01:10:55.171Z,21.69
2017-03-27T01:12:04.235Z,21.75
2017-03-27T01:13:13.297Z,21.8
2017-03-27T01:14:23.277Z,21.69
2017-03-27T01:15:32.640Z,21.69
2017-03-27T01:16:41.404Z,21.76
2017-03-27T01:17:51.069Z,21.69
2017-03-27T01:19:01.045Z,21.73
2017-03-27T01:20:10.113Z,21.69
2017-03-27T01:21:19.489Z,21.79
2017-03-27T01:22:28.563Z,21.75
2017-03-27T01:23:37.336Z,21.73
2017-03-27T01:24:46.708Z,21.69
2017-03-27T01:25:56.387Z,21.7
2017-03-27T01:27:05.151Z,21.69
2017-03-27T01:28:13.912Z,21.72
2017-03-27T01:29:22.995Z,21.7
2017-03-27T01:30:32.570Z,21.67
2017-03-27T01:31:41.951Z,21.64
2017-03-27T01:32:50.984Z,21.75
2017-03-27T01:34:00.333Z,21.67
2017-03-27T01:35:09.399Z,21.67
2017-03-27T01:36:18.769Z,21.73
2017-03-27T01:37:27.828Z,21.76
2017-03-27T01:38:36.902Z,21.73
2017-03-27T01:39:45.972Z,21.67
2017-03-27T01:40:55.347Z,21.7
2017-03-27T01:42:04.715Z,21.73
2017-03-27T01:43:14.097Z,21.67
2017-03-27T01:44:23.444Z,21.7
2017-03-27T01:45:33.085Z,21.73
2017-03-27T01:46:42.151Z,21.7
2017-03-27T01:47:51.821Z,21.66
2017-03-27T01:49:01.763Z,21.54
2017-03-27T01:50:11.104Z,21.69
2017-03-27T01:51:19.865Z,21.66
2017-03-27T01:52:28.583Z,21.57
2017-03-27T01:53:37.629Z,21.58
2017-03-27T01:54:47.564Z,21.6
2017-03-27T01:55:56.640Z,21.6
2017-03-27T01:57:05.999Z,21.66
2017-03-27T01:58:15.368Z,21.58
2017-03-27T01:59:25.044Z,21.57
2017-03-27T02:00:34.118Z,21.61
2017-03-27T02:01:43.178Z,21.58
2017-03-27T02:02:52.549Z,21.61
2017-03-27T02:04:02.532Z,21.58
2017-03-27T02:05:12.212Z,21.64
2017-03-27T02:06:21.574Z,21.54
2017-03-27T02:07:31.260Z,21.6
2017-03-27T02:08:40.635Z,21.6
2017-03-27T02:09:50.004Z,21.64
2017-03-27T02:10:59.374Z,21.58
2017-03-27T02:12:08.741Z,21.62
2017-03-27T02:13:17.805Z,21.58
2017-03-27T02:14:27.179Z,21.6
2017-03-27T02:15:36.555Z,21.55
2017-03-27T02:16:45.519Z,21.6
2017-03-27T02:17:54.856Z,21.54
2017-03-27T02:19:04.499Z,21.6
2017-03-27T02:20:13.575Z,21.55
2017-03-27T02:21:22.976Z,21.57
2017-03-27T02:22:32.367Z,21.66
2017-03-27T02:23:42.390Z,21.64
2017-03-27T02:24:51.449Z,21.6
2017-03-27T02:26:01.271Z,21.61
2017-03-27T02:27:10.375Z,21.61
2017-03-27T02:28:19.792Z,21.64
2017-03-27T02:29:29.442Z,21.64
2017-03-27T02:30:38.547Z,21.55
2017-03-27T02:31:47.937Z,21.61
2017-03-27T02:32:56.762Z,21.6
2017-03-27T02:34:05.865Z,21.61
2017-03-27T02:35:14.957Z,21.6
2017-03-27T02:36:24.054Z,21.62
2017-03-27T02:37:32.821Z,21.62
2017-03-27T02:38:42.212Z,21.57
2017-03-27T02:39:52.213Z,21.62
2017-03-27T02:41:01.624Z,21.62
2017-03-27T02:42:10.716Z,21.62
2017-03-27T02:43:20.122Z,21.57
2017-03-27T02:44:29.537Z,21.57
2017-03-27T02:45:38.330Z,21.58
2017-03-27T02:46:47.381Z,21.54
2017-03-27T02:47:57.027Z,21.61
2017-03-27T02:49:06.366Z,21.54
2017-03-27T02:50:16.017Z,21.64
2017-03-27T02:51:25.386Z,21.58
2017-03-27T02:52:34.480Z,21.58
2017-03-27T02:53:43.881Z,21.58
2017-03-27T02:54:54.401Z,21.57
2017-03-27T02:56:03.828Z,21.52
2017-03-27T02:57:12.582Z,21.58
2017-03-27T02:58:21.301Z,21.55
2017-03-27T02:59:30.376Z,21.51
2017-03-27T03:00:39.746Z,21.58
2017-03-27T03:01:49.117Z,21.54
2017-03-27T03:02:58.486Z,21.52
2017-03-27T03:04:07.558Z,21.57
2017-03-27T03:05:16.666Z,21.6
2017-03-27T03:06:25.758Z,21.51
2017-03-27T03:07:34.511Z,21.5
2017-03-27T03:08:44.203Z,21.54
2017-03-27T03:09:53.609Z,21.52
2017-03-27T03:11:03.014Z,21.52
2017-03-27T03:12:12.116Z,21.52
2017-03-27T03:13:21.824Z,21.58
2017-03-27T03:14:31.181Z,21.51
2017-03-27T03:15:40.847Z,21.54
2017-03-27T03:16:49.979Z,21.5
2017-03-27T03:17:59.025Z,21.52
2017-03-27T03:19:08.420Z,21.54
2017-03-27T03:20:17.783Z,21.51
2017-03-27T03:21:27.192Z,21.58
2017-03-27T03:22:36.597Z,21.54
2017-03-27T03:23:46.311Z,21.46
2017-03-27T03:24:55.715Z,21.54
2017-03-27T03:26:04.472Z,21.46
2017-03-27T03:27:13.563Z,21.46
2017-03-27T03:28:23.281Z,21.43
2017-03-27T03:29:33.233Z,21.51
2017-03-27T03:30:42.329Z,21.48
2017-03-27T03:31:51.433Z,21.48
2017-03-27T03:33:00.223Z,21.46
2017-03-27T03:34:09.336Z,21.5
2017-03-27T03:35:18.434Z,21.48
2017-03-27T03:36:27.212Z,21.54
2017-03-27T03:37:36.607Z,21.5
2017-03-27T03:38:46.296Z,21.48
2017-03-27T03:39:56.273Z,21.5
2017-03-27T03:41:05.630Z,21.42
2017-03-27T03:42:14.899Z,21.43
2017-03-27T03:43:24.613Z,21.43
2017-03-27T03:44:34.323Z,21.42
2017-03-27T03:45:43.685Z,21.51
2017-03-27T03:46:52.445Z,21.43
2017-03-27T03:48:02.612Z,21.48
2017-03-27T03:49:12.022Z,21.46
2017-03-27T03:50:22.005Z,21.48
2017-03-27T03:51:31.352Z,21.52
2017-03-27T03:52:40.732Z,21.42
2017-03-27T03:53:50.432Z,21.43
2017-03-27T03:54:59.570Z,21.52
2017-03-27T03:56:08.659Z,21.5
2017-03-27T03:57:17.751Z,21.55
2017-03-27T03:58:27.149Z,21.46
2017-03-27T03:59:35.902Z,21.54
2017-03-27T04:00:44.620Z,21.55
2017-03-27T04:01:53.381Z,21.39
2017-03-27T04:03:02.793Z,21.51
2017-03-27T04:04:11.610Z,21.52
2017-03-27T04:05:20.404Z,21.55
2017-03-27T04:06:29.200Z,21.58
2017-03-27T04:07:37.997Z,21.51
2017-03-27T04:08:47.710Z,21.57
2017-03-27T04:09:58.032Z,21.58
2017-03-27T04:11:07.138Z,21.52
2017-03-27T04:12:16.432Z,21.58
2017-03-27T04:13:25.507Z,21.54
2017-03-27T04:14:34.854Z,21.61
2017-03-27T04:15:43.880Z,21.57
2017-03-27T04:16:52.597Z,21.6
2017-03-27T04:18:02.283Z,21.61
2017-03-27T04:19:11.383Z,21.6
2017-03-27T04:20:20.782Z,21.67
2017-03-27T04:21:29.873Z,21.6
2017-03-27T04:22:39.778Z,21.55
2017-03-27T04:23:49.499Z,21.62
2017-03-27T04:24:58.880Z,21.58
2017-03-27T04:26:07.949Z,21.57
2017-03-27T04:27:17.353Z,21.64
2017-03-27T04:28:27.076Z,21.57
2017-03-27T04:29:36.799Z,21.62
2017-03-27T04:30:46.516Z,21.58
2017-03-27T04:31:55.861Z,21.58
2017-03-27T04:33:05.156Z,21.58
2017-03-27T04:34:15.486Z,21.6
2017-03-27T04:35:24.582Z,21.67
2017-03-27T04:36:33.981Z,21.7
2017-03-27T04:37:43.391Z,21.67
2017-03-27T04:38:53.104Z,21.66
2017-03-27T04:40:02.507Z,21.73
2017-03-27T04:41:11.295Z,21.73
2017-03-27T04:42:20.073Z,21.73
2017-03-27T04:43:29.180Z,21.72
2017-03-27T04:44:38.895Z,21.66
2017-03-27T04:45:48.306Z,21.73
2017-03-27T04:46:57.084Z,21.72
2017-03-27T04:48:06.501Z,21.69
2017-03-27T04:49:15.879Z,21.75
2017-03-27T04:50:25.257Z,21.75
2017-03-27T04:51:34.357Z,21.75
2017-03-27T04:52:43.152Z,21.77
2017-03-27T04:53:52.857Z,21.72
2017-03-27T04:55:02.588Z,21.72
2017-03-27T04:56:11.313Z,21.75
2017-03-27T04:57:20.649Z,21.77
2017-03-27T04:58:29.711Z,21.82
2017-03-27T04:59:39.041Z,21.82
2017-03-27T05:00:47.779Z,21.82
2017-03-27T05:01:56.823Z,21.92
2017-03-27T05:03:06.133Z,21.92
2017-03-27T05:04:15.828Z,21.82
2017-03-27T05:05:25.227Z,21.92
2017-03-27T05:06:34.011Z,21.93
2017-03-27T05:07:43.416Z,21.91
2017-03-27T05:08:53.706Z,21.93
2017-03-27T05:10:03.484Z,22
2017-03-27T05:11:12.269Z,21.92
2017-03-27T05:12:21.050Z,21.95
2017-03-27T05:13:30.456Z,21.95
2017-03-27T05:14:39.883Z,21.96
2017-03-27T05:15:48.973Z,22
2017-03-27T05:16:57.762Z,21.99
2017-03-27T05:18:06.866Z,22.1
2017-03-27T05:19:16.227Z,21.95
2017-03-27T05:20:25.595Z,22.1
2017-03-27T05:21:34.665Z,22.02
2017-03-27T05:22:44.035Z,22
2017-03-27T05:23:53.136Z,21.95
2017-03-27T05:25:02.535Z,22.13
2017-03-27T05:26:11.322Z,22.11
2017-03-27T05:27:20.424Z,22.13
2017-03-27T05:28:30.141Z,22.1
2017-03-27T05:29:39.557Z,22.07
2017-03-27T05:30:48.651Z,22.08
2017-03-27T05:31:57.708Z,22.04
2017-03-27T05:33:07.082Z,22.17
2017-03-27T05:34:16.142Z,22.15
2017-03-27T05:35:25.514Z,22.14
2017-03-27T05:36:34.918Z,22.14
2017-03-27T05:37:44.312Z,22.18
2017-03-27T05:38:54.028Z,22.04
2017-03-27T05:40:03.331Z,22.08
2017-03-27T05:41:12.389Z,22.14
2017-03-27T05:42:21.770Z,22.17
2017-03-27T05:43:31.484Z,22.15
2017-03-27T05:44:40.898Z,22.18
2017-03-27T05:45:50.000Z,22.23
2017-03-27T05:46:59.064Z,22.2
2017-03-27T05:48:07.787Z,22.15
2017-03-27T05:49:17.156Z,22.25
2017-03-27T05:50:25.939Z,22.26
2017-03-27T05:51:35.335Z,22.3
2017-03-27T05:52:45.011Z,22.28
2017-03-27T05:53:54.386Z,22.33
2017-03-27T05:55:04.359Z,22.29
2017-03-27T05:56:13.117Z,22.3
2017-03-27T05:57:22.215Z,22.29
2017-03-27T05:58:31.927Z,22.39
2017-03-27T05:59:41.651Z,22.41
2017-03-27T06:00:50.444Z,22.32
2017-03-27T06:01:59.540Z,22.38
2017-03-27T06:03:08.642Z,22.38
2017-03-27T06:04:18.308Z,22.41
2017-03-27T06:05:28.203Z,22.38
2017-03-27T06:06:37.907Z,22.45
2017-03-27T06:07:47.308Z,22.45
2017-03-27T06:08:56.718Z,22.5
2017-03-27T06:10:06.122Z,22.53
2017-03-27T06:11:15.496Z,22.48
2017-03-27T06:12:24.584Z,22.5
2017-03-27T06:13:34.508Z,22.55
2017-03-27T06:14:43.912Z,22.57
2017-03-27T06:15:52.901Z,22.55
2017-03-27T06:17:02.271Z,22.57
2017-03-27T06:18:11.633Z,22.57
2017-03-27T06:19:21.665Z,22.63
2017-03-27T06:20:30.454Z,22.66
2017-03-27T06:21:39.225Z,22.66
2017-03-27T06:22:48.270Z,22.69
2017-03-27T06:23:58.261Z,22.7
2017-03-27T06:25:07.361Z,22.75
2017-03-27T06:26:16.650Z,22.75
2017-03-27T06:27:25.737Z,22.72
2017-03-27T06:28:34.841Z,22.7
2017-03-27T06:29:44.548Z,22.69
2017-03-27T06:30:53.334Z,22.7
2017-03-27T06:32:02.121Z,22.76
2017-03-27T06:33:11.542Z,22.7
2017-03-27T06:34:21.806Z,22.73
2017-03-27T06:35:31.179Z,22.66
2017-03-27T06:36:40.765Z,22.78
2017-03-27T06:37:50.147Z,22.83
2017-03-27T06:38:59.809Z,22.72
2017-03-27T06:40:09.482Z,22.83
2017-03-27T06:41:18.276Z,22.8
2017-03-27T06:42:27.678Z,22.8
2017-03-27T06:43:36.771Z,22.85
2017-03-27T06:44:46.474Z,22.76
2017-03-27T06:45:55.882Z,22.91
2017-03-27T06:47:04.675Z,23
2017-03-27T06:48:13.774Z,22.99
2017-03-27T06:49:22.879Z,22.98
2017-03-27T06:50:31.980Z,22.93
2017-03-27T06:51:40.776Z,23.02
2017-03-27T06:52:50.072Z,23.02
2017-03-27T06:53:59.478Z,23
2017-03-27T06:55:08.234Z,23
2017-03-27T06:56:17.299Z,23.08
2017-03-27T06:57:26.970Z,23.08
2017-03-27T06:58:35.740Z,23.12
2017-03-27T06:59:44.844Z,23.15
2017-03-27T07:00:54.203Z,23.18
2017-03-27T07:02:02.977Z,23.23
2017-03-27T07:03:11.801Z,23.21
2017-03-27T07:04:20.920Z,23.2
2017-03-27T07:05:29.745Z,23.24
2017-03-27T07:06:39.093Z,23.32
2017-03-27T07:07:48.502Z,23.36
2017-03-27T07:08:58.517Z,23.34
2017-03-27T07:10:07.612Z,23.36
2017-03-27T07:11:16.390Z,23.41
2017-03-27T07:12:25.496Z,23.47
2017-03-27T07:13:34.640Z,23.43
2017-03-27T07:14:44.310Z,23.43
2017-03-27T07:15:53.986Z,23.58
2017-03-27T07:17:02.779Z,23.61
2017-03-27T07:18:11.539Z,23.66
2017-03-27T07:19:20.343Z,23.66
2017-03-27T07:20:30.060Z,23.77
2017-03-27T07:21:38.805Z,23.83
2017-03-27T07:22:48.205Z,23.83
2017-03-27T07:23:57.873Z,23.99
2017-03-27T07:25:06.918Z,24.01
2017-03-27T07:26:15.693Z,24.05
2017-03-27T07:27:24.742Z,24.2
2017-03-27T07:28:34.129Z,24.24
2017-03-27T07:29:43.530Z,24.35
2017-03-27T07:30:52.317Z,24.51
2017-03-27T07:32:01.111Z,24.53
2017-03-27T07:33:10.520Z,24.58
2017-03-27T07:34:19.623Z,24.73
2017-03-27T07:35:29.045Z,24.68
2017-03-27T07:36:37.837Z,24.86
2017-03-27T07:37:47.191Z,24.91
2017-03-27T07:38:56.876Z,24.99
2017-03-27T07:40:05.979Z,25.08
2017-03-27T07:41:14.766Z,25.22
2017-03-27T07:42:24.169Z,25.26
2017-03-27T07:43:33.274Z,25.32
2017-03-27T07:44:42.367Z,25.44
2017-03-27T07:45:51.695Z,25.5
2017-03-27T07:47:00.821Z,25.55
2017-03-27T07:48:10.225Z,25.62
2017-03-27T07:49:20.190Z,25.65
2017-03-27T07:50:29.598Z,25.62
2017-03-27T07:51:38.397Z,25.78
2017-03-27T07:52:47.802Z,25.78
2017-03-27T07:53:56.593Z,25.77
2017-03-27T07:55:05.702Z,25.75
2017-03-27T07:56:14.798Z,25.75
2017-03-27T07:57:23.593Z,25.75
2017-03-27T07:58:33.312Z,25.73
2017-03-27T07:59:42.409Z,25.83
2017-03-27T08:00:51.803Z,25.75
2017-03-27T08:02:00.602Z,25.77
2017-03-27T08:03:09.676Z,25.75
2017-03-27T08:04:19.079Z,25.77
2017-03-27T08:05:28.187Z,25.78
2017-03-27T08:06:37.278Z,25.73
2017-03-27T08:07:46.563Z,25.8
2017-03-27T08:08:56.840Z,25.78
2017-03-27T08:10:06.219Z,25.77
2017-03-27T08:11:15.579Z,25.91
2017-03-27T08:12:24.345Z,25.9
2017-03-27T08:13:34.058Z,25.91
2017-03-27T08:14:43.160Z,25.88
2017-03-27T08:15:51.959Z,25.85
2017-03-27T08:17:01.062Z,25.84
2017-03-27T08:18:10.167Z,25.81
2017-03-27T08:19:19.583Z,25.83
2017-03-27T08:20:28.997Z,25.93
2017-03-27T08:21:38.092Z,25.81
2017-03-27T08:22:47.490Z,25.9
2017-03-27T08:23:56.594Z,25.93
2017-03-27T08:25:05.688Z,25.93
2017-03-27T08:26:14.949Z,25.98
2017-03-27T08:27:23.719Z,26
2017-03-27T08:28:32.507Z,26.02
2017-03-27T08:29:41.907Z,26.03
2017-03-27T08:30:50.996Z,26.09
2017-03-27T08:32:00.055Z,26.05
2017-03-27T08:33:09.774Z,26.05
2017-03-27T08:34:20.118Z,26.07
2017-03-27T08:35:29.226Z,26.06
2017-03-27T08:36:38.690Z,26.06
2017-03-27T08:37:47.759Z,26.09
2017-03-27T08:38:57.137Z,26.07
2017-03-27T08:40:06.226Z,26.1
2017-03-27T08:41:15.325Z,26.15
2017-03-27T08:42:24.382Z,26.1
2017-03-27T08:43:33.746Z,26.16
2017-03-27T08:44:43.468Z,26.1
2017-03-27T08:45:52.265Z,26.22
2017-03-27T08:47:01.368Z,26.1
2017-03-27T08:48:10.465Z,26.1
2017-03-27T08:49:19.866Z,26.18
2017-03-27T08:50:28.688Z,26.19
2017-03-27T08:51:37.794Z,26.19
2017-03-27T08:52:46.611Z,26.19
2017-03-27T08:53:56.026Z,26.22
2017-03-27T08:55:05.149Z,26.19
2017-03-27T08:56:14.245Z,26.28
2017-03-27T08:57:23.671Z,26.33
2017-03-27T08:58:32.768Z,26.25
2017-03-27T08:59:41.867Z,26.31
2017-03-27T09:00:50.656Z,26.34
2017-03-27T09:02:00.061Z,26.28
2017-03-27T09:03:09.125Z,26.31
2017-03-27T09:04:18.503Z,26.4
2017-03-27T09:05:27.597Z,26.31
2017-03-27T09:06:36.700Z,26.4
2017-03-27T09:07:46.108Z,26.38
2017-03-27T09:08:56.129Z,26.47
2017-03-27T09:10:05.536Z,26.43
2017-03-27T09:11:14.832Z,26.56
2017-03-27T09:12:24.243Z,26.56
2017-03-27T09:13:33.651Z,26.71
2017-03-27T09:14:42.704Z,26.83
2017-03-27T09:15:51.771Z,26.9
2017-03-27T09:17:01.477Z,27.07
2017-03-27T09:18:10.876Z,27.32
2017-03-27T09:19:20.590Z,27.65
2017-03-27T09:20:29.981Z,28.15
2017-03-27T09:21:38.782Z,28.79
2017-03-27T09:22:48.180Z,29.32
2017-03-27T09:23:57.900Z,29.86
2017-03-27T09:25:06.999Z,30.39
2017-03-27T09:26:16.614Z,30.92
2017-03-27T09:27:25.745Z,31.29
2017-03-27T09:28:35.141Z,31.77
2017-03-27T09:29:44.247Z,32.19
2017-03-27T09:30:53.010Z,32.55
2017-03-27T09:32:01.772Z,32.93
2017-03-27T09:33:11.143Z,33.23
2017-03-27T09:34:20.521Z,33.55
2017-03-27T09:35:29.915Z,33.83
2017-03-27T09:36:38.858Z,34.21
2017-03-27T09:37:47.941Z,34.48
2017-03-27T09:38:57.969Z,34.74
2017-03-27T09:40:07.027Z,35
2017-03-27T09:41:16.106Z,35.15
2017-03-27T09:42:25.511Z,35.41
2017-03-27T09:43:34.615Z,35.61
2017-03-27T09:44:44.024Z,35.86
2017-03-27T09:45:53.106Z,36.04
2017-03-27T09:47:02.412Z,36.09
2017-03-27T09:48:11.484Z,36.21
2017-03-27T09:49:20.552Z,36.58
2017-03-27T09:50:29.653Z,36.73
2017-03-27T09:51:38.755Z,36.99
2017-03-27T09:52:47.863Z,37.18
2017-03-27T09:53:57.547Z,37.49
2017-03-27T09:55:06.963Z,37.7
2017-03-27T09:56:16.069Z,37.94
2017-03-27T09:57:25.361Z,38.05
2017-03-27T09:58:34.470Z,38.21
2017-03-27T09:59:43.838Z,38.36
2017-03-27T10:00:52.607Z,38.52
2017-03-27T10:02:01.716Z,38.67
2017-03-27T10:03:10.761Z,38.84
2017-03-27T10:04:19.516Z,38.95
2017-03-27T10:05:28.590Z,39.14
2017-03-27T10:06:37.998Z,39.41
2017-03-27T10:07:47.309Z,39.49
2017-03-27T10:08:56.414Z,39.55
2017-03-27T10:10:05.863Z,39.67
2017-03-27T10:11:14.624Z,39.8
2017-03-27T10:12:23.415Z,39.89
2017-03-27T10:13:32.823Z,40.09
2017-03-27T10:14:41.925Z,40.18
2017-03-27T10:15:51.072Z,40.34
2017-03-27T10:17:00.187Z,40.23
2017-03-27T10:18:09.601Z,40.51
2017-03-27T10:19:18.967Z,40.63
2017-03-27T10:20:28.044Z,40.85
2017-03-27T10:21:36.836Z,40.85
2017-03-27T10:22:46.242Z,40.97
2017-03-27T10:23:55.353Z,41.12
2017-03-27T10:25:05.074Z,41.15
2017-03-27T10:26:14.175Z,41.24
2017-03-27T10:27:23.275Z,41.4
2017-03-27T10:28:32.384Z,41.57
2017-03-27T10:29:42.412Z,41.63
2017-03-27T10:30:51.505Z,41.77
2017-03-27T10:32:00.566Z,41.88
2017-03-27T10:33:09.907Z,42.02
2017-03-27T10:34:19.600Z,42.16
2017-03-27T10:35:28.697Z,42.25
2017-03-27T10:36:38.122Z,42.47
2017-03-27T10:37:46.927Z,42.51
2017-03-27T10:38:56.341Z,42.57
2017-03-27T10:40:06.061Z,42.66
2017-03-27T10:41:14.868Z,42.86
2017-03-27T10:42:23.961Z,42.89
2017-03-27T10:43:33.681Z,43.03
2017-03-27T10:44:43.087Z,43.07
2017-03-27T10:45:51.879Z,43.15
2017-03-27T10:47:01.297Z,43.27
2017-03-27T10:48:10.365Z,43.36
2017-03-27T10:49:20.366Z,43.48
2017-03-27T10:50:29.750Z,43.58
2017-03-27T10:51:38.552Z,43.64
2017-03-27T10:52:47.663Z,43.72
2017-03-27T10:53:57.052Z,43.8
2017-03-27T10:55:06.838Z,43.87
2017-03-27T10:56:15.943Z,44.01
2017-03-27T10:57:24.708Z,44.01
2017-03-27T10:58:34.721Z,44.14
2017-03-27T10:59:44.750Z,44.21
2017-03-27T11:00:53.851Z,44.27
2017-03-27T11:02:02.947Z,44.3
2017-03-27T11:03:12.050Z,44.42
2017-03-27T11:04:21.368Z,44.56
2017-03-27T11:05:30.171Z,44.59
2017-03-27T11:06:38.923Z,44.67
2017-03-27T11:07:47.692Z,44.68
2017-03-27T11:08:57.407Z,44.79
2017-03-27T11:10:06.526Z,44.83
2017-03-27T11:11:15.595Z,44.94
2017-03-27T11:12:24.981Z,44.97
2017-03-27T11:13:34.092Z,45.09
2017-03-27T11:14:43.207Z,45.1
2017-03-27T11:15:52.276Z,45.21
2017-03-27T11:17:01.660Z,45.28
2017-03-27T11:18:10.753Z,45.27
2017-03-27T11:19:20.473Z,45.22
2017-03-27T11:20:29.887Z,45.39
2017-03-27T11:21:38.989Z,45.4
2017-03-27T11:22:48.088Z,45.5
2017-03-27T11:23:58.114Z,45.5
2017-03-27T11:25:07.221Z,45.58
2017-03-27T11:26:16.018Z,45.59
2017-03-27T11:27:24.823Z,45.63
2017-03-27T11:28:33.624Z,45.68
2017-03-27T11:29:43.040Z,45.61
2017-03-27T11:30:52.148Z,45.8
2017-03-27T11:32:01.248Z,45.82
2017-03-27T11:33:10.666Z,45.8
2017-03-27T11:34:20.080Z,45.87
2017-03-27T11:35:29.750Z,45.84
2017-03-27T11:36:38.839Z,45.92
2017-03-27T11:37:47.934Z,46.01
2017-03-27T11:38:57.357Z,45.97
2017-03-27T11:40:07.072Z,45.89
2017-03-27T11:41:16.722Z,45.94
2017-03-27T11:42:25.795Z,45.89
2017-03-27T11:43:35.184Z,45.97
2017-03-27T11:44:44.255Z,45.82
2017-03-27T11:45:53.069Z,45.92
2017-03-27T11:47:01.917Z,45.97
2017-03-27T11:48:10.729Z,45.96
2017-03-27T11:49:19.861Z,46.01
2017-03-27T11:50:28.691Z,45.93
2017-03-27T11:51:37.508Z,46
2017-03-27T11:52:46.603Z,45.97
2017-03-27T11:53:56.005Z,45.96
2017-03-27T11:55:04.827Z,45.96
2017-03-27T11:56:13.602Z,45.93
2017-03-27T11:57:22.678Z,45.97
2017-03-27T11:58:31.806Z,45.84
2017-03-27T11:59:40.593Z,45.72
2017-03-27T12:00:49.409Z,45.56
2017-03-27T12:01:58.218Z,45.35
2017-03-27T12:03:07.229Z,44.88
2017-03-27T12:04:16.046Z,44.18
2017-03-27T12:05:24.847Z,43.48
2017-03-27T12:06:33.954Z,42.82
2017-03-27T12:07:43.033Z,42.07
2017-03-27T12:08:51.792Z,41.25
2017-03-27T12:10:01.474Z,40.73
2017-03-27T12:11:10.266Z,40.09
2017-03-27T12:12:19.675Z,39.49
2017-03-27T12:13:28.785Z,38.96
2017-03-27T12:14:38.515Z,38.46
2017-03-27T12:15:47.893Z,38.02
2017-03-27T12:16:56.996Z,37.64
2017-03-27T12:18:06.403Z,37.15
2017-03-27T12:19:15.503Z,36.77
2017-03-27T12:20:24.916Z,36.45
2017-03-27T12:21:34.068Z,36.12
2017-03-27T12:22:43.496Z,35.8
2017-03-27T12:23:52.592Z,35.44
2017-03-27T12:25:01.683Z,35.17
2017-03-27T12:26:10.449Z,34.85
2017-03-27T12:27:19.225Z,34.58
2017-03-27T12:28:28.030Z,34.38
2017-03-27T12:29:36.819Z,34.08
2017-03-27T12:30:45.643Z,33.9
2017-03-27T12:31:54.418Z,33.69
2017-03-27T12:33:03.516Z,33.45
2017-03-27T12:34:12.337Z,33.24
2017-03-27T12:35:21.131Z,33
2017-03-27T12:36:30.226Z,32.8
2017-03-27T12:37:39.023Z,32.64
2017-03-27T12:38:48.125Z,32.52
2017-03-27T12:39:57.124Z,32.23
2017-03-27T12:41:05.929Z,32.15
2017-03-27T12:42:14.685Z,32
2017-03-27T12:43:23.465Z,31.77
2017-03-27T12:44:32.279Z,31.62
2017-03-27T12:45:41.044Z,31.54
2017-03-27T12:46:49.808Z,31.33
2017-03-27T12:47:58.597Z,31.22
2017-03-27T12:49:07.396Z,30.99
2017-03-27T12:50:16.193Z,30.94
2017-03-27T12:51:24.990Z,30.84
2017-03-27T12:52:33.746Z,30.8
2017-03-27T12:53:43.165Z,30.66
2017-03-27T12:54:52.285Z,30.48
2017-03-27T12:56:01.611Z,30.39
2017-03-27T12:57:10.699Z,30.34
2017-03-27T12:58:19.485Z,30.32
2017-03-27T12:59:28.285Z,30.23
2017-03-27T13:00:37.071Z,30.06
2017-03-27T13:01:45.897Z,29.97
2017-03-27T13:02:54.995Z,29.9
2017-03-27T13:04:04.390Z,29.86
2017-03-27T13:05:14.096Z,29.72
2017-03-27T13:06:23.395Z,29.66
2017-03-27T13:07:32.493Z,29.56
2017-03-27T13:08:42.101Z,29.54
2017-03-27T13:09:51.769Z,29.42
2017-03-27T13:11:01.661Z,29.32
2017-03-27T13:12:10.759Z,29.32
2017-03-27T13:13:19.853Z,29.23
2017-03-27T13:14:28.842Z,29.17
2017-03-27T13:15:37.632Z,29.12
2017-03-27T13:16:47.035Z,29.07
2017-03-27T13:17:56.143Z,29.02
2017-03-27T13:19:04.892Z,28.88
2017-03-27T13:20:13.977Z,28.94
2017-03-27T13:21:23.077Z,28.85
2017-03-27T13:22:32.174Z,28.85
2017-03-27T13:23:41.273Z,28.76
2017-03-27T13:24:50.061Z,28.72
2017-03-27T13:25:59.743Z,28.76
2017-03-27T13:27:08.815Z,28.72
2017-03-27T13:28:17.610Z,28.62
2017-03-27T13:29:26.356Z,28.59
2017-03-27T13:30:35.121Z,28.51
2017-03-27T13:31:44.514Z,28.47
2017-03-27T13:32:53.558Z,28.37
2017-03-27T13:34:03.268Z,28.35
2017-03-27T13:35:12.951Z,28.37
2017-03-27T13:36:22.025Z,28.25
2017-03-27T13:37:30.814Z,28.29
2017-03-27T13:38:40.390Z,28.14
2017-03-27T13:39:49.495Z,28.12
2017-03-27T13:40:58.917Z,28.17
2017-03-27T13:42:07.723Z,28.05
2017-03-27T13:43:16.831Z,27.98
2017-03-27T13:44:26.549Z,27.98
2017-03-27T13:45:35.344Z,28.01
2017-03-27T13:46:44.138Z,27.93
2017-03-27T13:47:53.535Z,27.98
2017-03-27T13:49:02.626Z,27.89
2017-03-27T13:50:11.713Z,27.82
2017-03-27T13:51:20.509Z,27.85
2017-03-27T13:52:29.298Z,27.83
2017-03-27T13:53:38.084Z,27.78
2017-03-27T13:54:46.864Z,27.78
2017-03-27T13:55:55.658Z,27.7
2017-03-27T13:57:04.402Z,27.73
2017-03-27T13:58:13.163Z,27.7
2017-03-27T13:59:22.455Z,27.59
2017-03-27T14:00:31.257Z,27.6
2017-03-27T14:01:40.051Z,27.52
2017-03-27T14:02:48.848Z,27.52
2017-03-27T14:03:57.637Z,27.58
2017-03-27T14:05:06.421Z,27.52
2017-03-27T14:06:15.216Z,27.51
2017-03-27T14:07:24.011Z,27.49
2017-03-27T14:08:33.396Z,27.49
2017-03-27T14:09:42.487Z,27.42
2017-03-27T14:10:51.855Z,27.37
2017-03-27T14:12:00.923Z,27.33
2017-03-27T14:13:10.016Z,27.32
2017-03-27T14:14:19.623Z,27.29
2017-03-27T14:15:28.418Z,27.22
2017-03-27T14:16:37.516Z,27.25
2017-03-27T14:17:46.623Z,27.22
2017-03-27T14:18:56.019Z,27.18
2017-03-27T14:20:04.764Z,27.15
2017-03-27T14:21:13.522Z,27.18
2017-03-27T14:22:22.270Z,27.15
2017-03-27T14:23:31.033Z,27.25
2017-03-27T14:24:39.821Z,27.2
2017-03-27T14:25:48.610Z,27.15
2017-03-27T14:26:58.014Z,27.05
2017-03-27T14:28:06.802Z,27.03
2017-03-27T14:29:15.585Z,27.07
2017-03-27T14:30:24.370Z,27.05
2017-03-27T14:31:33.164Z,27.03
2017-03-27T14:32:42.258Z,27.11
2017-03-27T14:33:51.006Z,27.02
2017-03-27T14:34:59.760Z,27.1
2017-03-27T14:36:08.839Z,26.99
2017-03-27T14:37:18.141Z,26.99
2017-03-27T14:38:26.933Z,27
2017-03-27T14:39:35.726Z,27
2017-03-27T14:40:44.775Z,26.85
2017-03-27T14:41:53.841Z,26.96
2017-03-27T14:43:02.632Z,26.89
2017-03-27T14:44:11.756Z,26.85
2017-03-27T14:45:20.854Z,26.92
2017-03-27T14:46:29.909Z,26.88
2017-03-27T14:47:38.946Z,26.84
2017-03-27T14:48:48.633Z,26.81
2017-03-27T14:49:57.412Z,26.88
2017-03-27T14:51:06.764Z,26.74
2017-03-27T14:52:15.833Z,26.83
2017-03-27T14:53:24.628Z,26.81
2017-03-27T14:54:33.728Z,26.78
2017-03-27T14:55:42.509Z,26.78